createdAt,value
2023-03-31T00:00:18.755Z,81.78
2023-03-31T00:02:52.865Z,81.75
2023-03-31T00:05:33.734Z,81.79
2023-03-31T00:08:03.336Z,81.88
2023-03-31T00:10:40.733Z,81.91
2023-03-31T00:13:07.462Z,82.18
2023-03-31T00:15:34.191Z,82.05
2023-03-31T00:18:07.824Z,82.00
2023-03-31T00:20:38.278Z,82.15
2023-03-31T00:23:17.800Z,82.31
2023-03-31T00:25:45.239Z,82.05
2023-03-31T00:28:18.830Z,82.55
2023-03-31T00:30:46.563Z,82.31
2023-03-31T00:33:20.735Z,82.44
2023-03-31T00:35:52.247Z,82.42
2023-03-31T00:38:28.726Z,82.84
2023-03-31T00:40:55.571Z,82.83
2023-03-31T00:43:38.845Z,82.86
2023-03-31T00:46:18.303Z,82.50
2023-03-31T00:48:58.755Z,82.25
2023-03-31T00:51:38.756Z,82.64
2023-03-31T00:54:08.761Z,82.59
2023-03-31T00:56:45.809Z,82.52
2023-03-31T00:59:13.573Z,82.89
2023-03-31T01:01:49.750Z,82.59
2023-03-31T01:04:24.143Z,82.64
2023-03-31T01:07:33.857Z,82.69
2023-03-31T01:10:03.969Z,82.93
2023-03-31T01:12:39.837Z,83.01
2023-03-31T01:15:07.842Z,82.72
2023-03-31T01:17:41.959Z,82.99
2023-03-31T01:20:14.844Z,82.95
2023-03-31T01:23:00.844Z,83.09
2023-03-31T01:25:38.955Z,82.83
2023-03-31T01:28:24.844Z,83.24
2023-03-31T01:30:54.452Z,82.88
2023-03-31T01:33:42.780Z,82.89
2023-03-31T01:36:53.749Z,83.09
2023-03-31T01:40:01.791Z,83.13
2023-03-31T01:42:49.822Z,83.01
2023-03-31T01:45:36.687Z,82.98
2023-03-31T01:48:24.870Z,82.71
2023-03-31T01:51:05.892Z,82.61
2023-03-31T01:53:54.819Z,82.99
2023-03-31T01:56:52.840Z,83.76
2023-03-31T01:59:48.889Z,84.14
2023-03-31T02:02:28.901Z,84.63
2023-03-31T02:05:16.774Z,84.81
2023-03-31T02:08:09.652Z,85.30
2023-03-31T02:10:43.871Z,86.12
2023-03-31T02:13:13.178Z,86.28
2023-03-31T02:15:50.876Z,86.09
2023-03-31T02:18:26.332Z,86.62
2023-03-31T02:21:01.855Z,86.72
2023-03-31T02:23:32.086Z,87.28
2023-03-31T02:26:37.903Z,88.03
2023-03-31T02:29:05.081Z,88.23
2023-03-31T02:31:34.855Z,88.46
2023-03-31T02:34:09.863Z,88.98
2023-03-31T02:36:38.034Z,88.97
2023-03-31T02:39:22.912Z,89.28
2023-03-31T02:41:50.254Z,89.68
2023-03-31T02:44:24.803Z,89.25
2023-03-31T02:46:58.854Z,89.75
2023-03-31T02:49:31.882Z,89.67
2023-03-31T02:52:12.629Z,89.86
2023-03-31T02:55:03.809Z,90.18
2023-03-31T02:57:52.286Z,90.22
2023-03-31T03:00:47.942Z,90.13
2023-03-31T03:03:33.006Z,89.63
2023-03-31T03:06:20.827Z,89.40
2023-03-31T03:08:57.922Z,89.53
2023-03-31T03:11:44.866Z,89.79
2023-03-31T03:14:36.196Z,89.49
2023-03-31T03:17:20.894Z,89.47
2023-03-31T03:19:55.381Z,89.94
2023-03-31T03:22:29.943Z,90.11
2023-03-31T03:24:56.700Z,90.12
2023-03-31T03:27:29.936Z,89.96
2023-03-31T03:29:56.902Z,89.89
2023-03-31T03:32:29.916Z,89.72
2023-03-31T03:34:56.988Z,90.08
2023-03-31T03:37:29.959Z,90.27
2023-03-31T03:39:56.756Z,90.60
2023-03-31T03:42:29.927Z,90.46
2023-03-31T03:44:56.831Z,90.50
2023-03-31T03:47:29.923Z,90.55
2023-03-31T03:50:02.900Z,90.58
2023-03-31T03:52:29.660Z,90.56
2023-03-31T03:55:02.913Z,90.72
2023-03-31T03:57:35.858Z,91.04
2023-03-31T04:00:08.840Z,91.05
2023-03-31T04:02:35.695Z,91.05
2023-03-31T04:05:15.956Z,90.75
2023-03-31T04:07:49.285Z,91.01
2023-03-31T04:10:22.925Z,90.91
2023-03-31T04:12:55.914Z,90.90
2023-03-31T04:15:29.138Z,90.87
2023-03-31T04:17:58.433Z,91.12
2023-03-31T04:20:36.876Z,91.21
2023-03-31T04:23:09.948Z,91.03
2023-03-31T04:25:44.915Z,91.06
2023-03-31T04:28:20.864Z,90.97
2023-03-31T04:30:47.864Z,91.34
2023-03-31T04:33:22.877Z,91.70
2023-03-31T04:35:49.991Z,91.44
2023-03-31T04:38:28.959Z,91.32
2023-03-31T04:40:56.457Z,91.16
2023-03-31T04:43:29.938Z,91.33
2023-03-31T04:45:56.886Z,91.09
2023-03-31T04:48:29.951Z,90.94
2023-03-31T04:50:56.660Z,90.61
2023-03-31T04:53:23.812Z,90.83
2023-03-31T04:55:57.963Z,90.92
2023-03-31T04:58:24.763Z,90.81
2023-03-31T05:00:59.017Z,91.21
2023-03-31T05:03:32.496Z,91.24
2023-03-31T05:06:12.902Z,91.24
2023-03-31T05:08:39.628Z,91.43
2023-03-31T05:11:13.974Z,91.41
2023-03-31T05:13:40.787Z,91.58
2023-03-31T05:16:15.983Z,91.50
2023-03-31T05:18:42.910Z,91.74
2023-03-31T05:21:24.921Z,91.74
2023-03-31T05:23:51.796Z,91.90
2023-03-31T05:26:25.941Z,92.04
2023-03-31T05:28:54.171Z,92.20
2023-03-31T05:31:21.068Z,92.05
2023-03-31T05:33:54.932Z,92.32
2023-03-31T05:36:29.969Z,92.11
2023-03-31T05:38:56.756Z,92.46
2023-03-31T05:41:29.912Z,92.42
2023-03-31T05:43:56.736Z,92.42
2023-03-31T05:46:30.064Z,92.47
2023-03-31T05:49:03.012Z,92.70
2023-03-31T05:51:29.910Z,92.55
2023-03-31T05:54:02.972Z,92.51
2023-03-31T05:56:30.267Z,92.77
2023-03-31T05:59:05.270Z,92.53
2023-03-31T06:01:32.731Z,92.79
2023-03-31T06:04:05.977Z,92.75
2023-03-31T06:06:37.587Z,92.46
2023-03-31T06:09:12.998Z,93.09
2023-03-31T06:11:39.787Z,92.97
2023-03-31T06:14:12.980Z,92.84
2023-03-31T06:16:45.993Z,92.89
2023-03-31T06:19:19.210Z,92.55
2023-03-31T06:21:46.576Z,92.62
2023-03-31T06:24:13.384Z,92.77
2023-03-31T06:26:46.983Z,92.92
2023-03-31T06:29:13.767Z,92.82
2023-03-31T06:31:46.956Z,92.74
2023-03-31T06:34:13.688Z,92.71
2023-03-31T06:36:46.900Z,92.55
2023-03-31T06:39:13.684Z,92.61
2023-03-31T06:41:46.978Z,92.60
2023-03-31T06:44:22.912Z,92.44
2023-03-31T06:46:55.952Z,92.35
2023-03-31T06:49:22.876Z,92.51
2023-03-31T06:51:55.975Z,92.46
2023-03-31T06:54:22.865Z,92.80
2023-03-31T06:56:56.009Z,92.48
2023-03-31T06:59:29.135Z,92.60
2023-03-31T07:02:03.079Z,92.80
2023-03-31T07:04:37.001Z,92.70
2023-03-31T07:07:10.141Z,92.68
2023-03-31T07:09:43.943Z,92.53
2023-03-31T07:12:11.117Z,92.62
2023-03-31T07:14:43.953Z,92.75
2023-03-31T07:17:10.936Z,92.75
2023-03-31T07:19:44.994Z,93.04
2023-03-31T07:22:11.993Z,92.70
2023-03-31T07:24:51.996Z,92.29
2023-03-31T07:27:26.383Z,92.50
2023-03-31T07:30:00.018Z,92.11
2023-03-31T07:32:33.049Z,91.58
2023-03-31T07:35:00.324Z,91.24
2023-03-31T07:37:36.981Z,90.98
2023-03-31T07:40:05.835Z,90.33
2023-03-31T07:42:39.914Z,89.91
2023-03-31T07:45:07.979Z,89.51
2023-03-31T07:47:41.017Z,89.45
2023-03-31T07:50:08.479Z,89.60
2023-03-31T07:52:44.174Z,88.91
2023-03-31T07:55:13.153Z,88.83
2023-03-31T07:57:47.010Z,88.12
2023-03-31T08:00:22.189Z,88.00
2023-03-31T08:03:02.039Z,87.95
2023-03-31T08:05:35.153Z,87.73
2023-03-31T08:08:09.025Z,88.17
2023-03-31T08:10:35.985Z,88.23
2023-03-31T08:13:09.097Z,87.86
2023-03-31T08:15:35.955Z,88.06
2023-03-31T08:18:11.133Z,88.12
2023-03-31T08:20:47.752Z,88.09
2023-03-31T08:23:16.947Z,87.84
2023-03-31T08:25:50.016Z,87.98
2023-03-31T08:28:17.758Z,87.52
2023-03-31T08:30:51.134Z,87.55
2023-03-31T08:33:18.097Z,87.37
2023-03-31T08:35:52.111Z,87.98
2023-03-31T08:38:18.978Z,87.69
2023-03-31T08:40:52.116Z,87.89
2023-03-31T08:43:27.894Z,88.43
2023-03-31T08:46:01.041Z,88.30
2023-03-31T08:48:32.750Z,88.11
2023-03-31T08:51:22.041Z,88.15
2023-03-31T08:53:59.579Z,88.24
2023-03-31T08:56:34.017Z,87.97
2023-03-31T08:59:37.963Z,88.33
2023-03-31T09:02:11.225Z,88.21
2023-03-31T09:05:13.246Z,88.73
2023-03-31T09:08:31.149Z,88.88
2023-03-31T09:11:34.125Z,88.60
2023-03-31T09:14:31.158Z,88.86
2023-03-31T09:17:22.779Z,89.02
2023-03-31T09:20:08.067Z,89.28
2023-03-31T09:22:43.672Z,89.36
2023-03-31T09:25:30.127Z,89.75
2023-03-31T09:28:06.085Z,89.37
2023-03-31T09:30:42.061Z,89.83
2023-03-31T09:33:17.020Z,90.07
2023-03-31T09:35:52.220Z,89.90
2023-03-31T09:38:19.151Z,90.42
2023-03-31T09:40:53.053Z,90.58
2023-03-31T09:43:24.429Z,90.34
2023-03-31T09:46:14.752Z,90.16
2023-03-31T09:48:50.926Z,90.65
2023-03-31T09:51:29.097Z,90.50
2023-03-31T09:54:25.993Z,90.42
2023-03-31T09:57:02.168Z,90.47
2023-03-31T09:59:34.581Z,90.77
2023-03-31T10:02:23.054Z,90.95
2023-03-31T10:04:57.241Z,91.46
2023-03-31T10:07:38.072Z,91.55
2023-03-31T10:10:19.229Z,91.16
2023-03-31T10:12:58.109Z,91.26
2023-03-31T10:15:28.495Z,91.30
2023-03-31T10:18:05.131Z,91.44
2023-03-31T10:20:37.323Z,91.59
2023-03-31T10:23:24.113Z,91.53
2023-03-31T10:25:51.376Z,91.41
2023-03-31T10:28:26.230Z,91.76
2023-03-31T10:30:56.580Z,91.37
2023-03-31T10:33:33.059Z,91.46
2023-03-31T10:36:02.737Z,91.96
2023-03-31T10:38:53.083Z,91.80
2023-03-31T10:41:38.101Z,91.89
2023-03-31T10:44:04.953Z,91.66
2023-03-31T10:46:51.180Z,89.62
2023-03-31T10:49:30.152Z,88.63
2023-03-31T10:52:06.086Z,88.85
2023-03-31T10:54:39.089Z,87.75
2023-03-31T10:57:13.167Z,87.02
2023-03-31T11:00:06.100Z,87.06
2023-03-31T11:02:52.076Z,86.61
2023-03-31T11:05:51.116Z,86.31
2023-03-31T11:09:09.191Z,85.67
2023-03-31T11:11:58.076Z,86.04
2023-03-31T11:14:48.362Z,85.06
2023-03-31T11:17:41.231Z,85.13
2023-03-31T11:20:08.170Z,85.31
2023-03-31T11:22:50.093Z,85.24
2023-03-31T11:25:37.719Z,84.94
2023-03-31T11:28:41.177Z,85.17
2023-03-31T11:31:29.312Z,84.94
2023-03-31T11:34:36.152Z,84.69
2023-03-31T11:37:32.308Z,85.03
2023-03-31T11:40:14.187Z,84.23
2023-03-31T11:43:00.935Z,85.00
2023-03-31T11:45:40.206Z,84.27
2023-03-31T11:48:17.795Z,85.12
2023-03-31T11:50:54.135Z,85.22
2023-03-31T11:53:27.465Z,83.85
2023-03-31T11:56:03.179Z,82.66
2023-03-31T11:58:48.182Z,81.61
2023-03-31T12:01:28.157Z,82.16
2023-03-31T12:04:04.256Z,78.16
2023-03-31T12:06:42.787Z,77.49
2023-03-31T12:09:37.215Z,77.84
2023-03-31T12:12:36.081Z,77.30
2023-03-31T12:15:32.203Z,77.96
2023-03-31T12:18:33.203Z,76.96
2023-03-31T12:21:04.442Z,75.35
2023-03-31T12:23:45.174Z,77.30
2023-03-31T12:26:38.231Z,77.35
2023-03-31T12:29:24.217Z,78.56
2023-03-31T12:32:00.189Z,77.51
2023-03-31T12:34:35.202Z,77.43
2023-03-31T12:37:28.158Z,77.84
2023-03-31T12:40:30.472Z,77.45
2023-03-31T12:43:18.110Z,76.47
2023-03-31T12:46:24.237Z,76.01
2023-03-31T12:49:04.281Z,76.52
2023-03-31T12:52:11.153Z,75.93
2023-03-31T12:55:10.680Z,75.54
2023-03-31T12:57:37.779Z,74.27
2023-03-31T13:00:28.221Z,74.30
2023-03-31T13:03:40.206Z,75.67
2023-03-31T13:06:24.365Z,73.91
2023-03-31T13:08:55.720Z,74.24
2023-03-31T13:11:30.448Z,73.00
2023-03-31T13:14:03.013Z,72.30
2023-03-31T13:16:39.286Z,72.81
2023-03-31T13:19:13.178Z,71.79
2023-03-31T13:22:04.181Z,71.97
2023-03-31T13:24:32.547Z,72.52
2023-03-31T13:27:42.455Z,72.60
2023-03-31T13:30:41.808Z,71.21
2023-03-31T13:33:18.587Z,72.33
2023-03-31T13:35:53.252Z,71.79
2023-03-31T13:39:04.185Z,71.17
2023-03-31T13:41:49.057Z,70.01
2023-03-31T13:45:07.339Z,70.40
2023-03-31T13:47:44.540Z,70.87
2023-03-31T13:50:41.224Z,70.06
2023-03-31T13:53:14.217Z,70.79
2023-03-31T13:55:59.201Z,70.95
2023-03-31T13:58:44.791Z,70.60
2023-03-31T14:01:49.210Z,70.63
2023-03-31T14:05:13.199Z,71.59
2023-03-31T14:07:54.265Z,71.19
2023-03-31T14:10:34.384Z,71.24
2023-03-31T14:13:22.212Z,72.12
2023-03-31T14:15:59.201Z,71.69
2023-03-31T14:18:34.656Z,70.73
2023-03-31T14:21:18.164Z,71.97
2023-03-31T14:24:07.296Z,71.44
2023-03-31T14:26:49.078Z,73.66
2023-03-31T14:29:45.369Z,74.31
2023-03-31T14:32:36.571Z,73.54
2023-03-31T14:35:35.384Z,74.60
2023-03-31T14:38:06.425Z,73.65
2023-03-31T14:40:40.367Z,73.97
2023-03-31T14:43:07.430Z,73.66
2023-03-31T14:45:41.379Z,72.11
2023-03-31T14:48:14.063Z,71.19
2023-03-31T14:50:52.225Z,71.00
2023-03-31T14:53:31.481Z,71.82
2023-03-31T14:56:22.329Z,72.48
2023-03-31T14:58:53.288Z,73.73
2023-03-31T15:01:35.328Z,75.04
2023-03-31T15:04:14.407Z,76.45
2023-03-31T15:06:57.295Z,77.32
2023-03-31T15:09:28.977Z,78.81
2023-03-31T15:12:08.316Z,77.60
2023-03-31T15:14:41.289Z,76.66
2023-03-31T15:17:28.329Z,75.80
2023-03-31T15:19:58.003Z,76.37
2023-03-31T15:22:34.355Z,75.96
2023-03-31T15:25:01.202Z,75.88
2023-03-31T15:27:41.306Z,76.34
2023-03-31T15:30:21.306Z,76.12
2023-03-31T15:32:59.043Z,76.57
2023-03-31T15:35:43.271Z,76.98
2023-03-31T15:38:16.603Z,77.54
2023-03-31T15:40:51.298Z,77.77
2023-03-31T15:43:28.733Z,78.36
2023-03-31T15:46:04.336Z,79.35
2023-03-31T15:48:38.001Z,80.75
2023-03-31T15:51:45.236Z,81.78
2023-03-31T15:54:47.287Z,82.39
2023-03-31T15:57:22.599Z,82.50
2023-03-31T15:59:58.454Z,83.08
2023-03-31T16:02:36.415Z,83.30
2023-03-31T16:07:53.946Z,82.72
2023-03-31T16:10:30.314Z,82.03
2023-03-31T16:13:13.481Z,81.96
2023-03-31T16:15:47.212Z,82.24
2023-03-31T16:18:32.411Z,81.85
2023-03-31T16:21:09.367Z,82.22
2023-03-31T16:23:48.303Z,82.82
2023-03-31T16:26:22.317Z,82.42
2023-03-31T16:29:00.362Z,82.79
2023-03-31T16:31:38.122Z,82.85
2023-03-31T16:34:14.257Z,83.26
2023-03-31T16:36:41.312Z,83.50
2023-03-31T16:39:15.360Z,83.94
2023-03-31T16:41:42.564Z,84.58
2023-03-31T16:44:16.424Z,84.71
2023-03-31T16:46:43.518Z,84.58
2023-03-31T16:49:17.311Z,84.38
2023-03-31T16:51:50.337Z,84.40
2023-03-31T16:54:17.246Z,84.34
2023-03-31T16:56:50.282Z,83.61
2023-03-31T16:59:24.406Z,83.57
2023-03-31T17:01:52.615Z,83.16
2023-03-31T17:04:27.339Z,83.25
2023-03-31T17:07:00.344Z,83.04
2023-03-31T17:09:33.350Z,82.09
2023-03-31T17:12:06.373Z,82.36
2023-03-31T17:14:39.273Z,81.49
2023-03-31T17:17:12.404Z,81.19
2023-03-31T17:19:39.250Z,80.85
2023-03-31T17:22:13.353Z,81.61
2023-03-31T17:24:40.178Z,81.44
2023-03-31T17:27:13.365Z,81.08
2023-03-31T17:29:40.281Z,81.10
2023-03-31T17:32:13.453Z,81.41
2023-03-31T17:34:40.704Z,81.57
2023-03-31T17:37:14.367Z,81.29
2023-03-31T17:39:41.218Z,81.54
2023-03-31T17:42:15.317Z,81.57
2023-03-31T17:44:49.314Z,81.60
2023-03-31T17:47:23.429Z,81.75
2023-03-31T17:49:50.285Z,81.85
2023-03-31T17:52:23.313Z,82.09
2023-03-31T17:54:50.867Z,82.30
2023-03-31T17:57:18.044Z,82.27
2023-03-31T17:59:52.324Z,82.37
2023-03-31T18:02:19.450Z,82.29
2023-03-31T18:04:59.412Z,82.75
2023-03-31T18:07:33.396Z,82.85
2023-03-31T18:10:07.332Z,83.22
2023-03-31T18:12:36.709Z,83.15
2023-03-31T18:15:13.557Z,83.30
2023-03-31T18:17:40.481Z,83.45
2023-03-31T18:20:14.375Z,84.10
2023-03-31T18:22:41.451Z,84.45
2023-03-31T18:25:16.406Z,84.75
2023-03-31T18:27:43.433Z,84.88
2023-03-31T18:30:18.440Z,85.06
2023-03-31T18:32:51.417Z,85.29
2023-03-31T18:35:20.187Z,85.77
2023-03-31T18:37:53.379Z,85.97
2023-03-31T18:40:20.445Z,86.36
2023-03-31T18:42:54.442Z,86.67
2023-03-31T18:45:21.536Z,86.63
2023-03-31T18:47:55.452Z,86.53
2023-03-31T18:50:23.550Z,86.99
2023-03-31T18:53:01.363Z,87.17
2023-03-31T18:55:29.462Z,87.86
2023-03-31T18:58:03.329Z,88.13
2023-03-31T19:00:30.457Z,88.07
2023-03-31T19:03:04.477Z,88.53
2023-03-31T19:05:38.360Z,88.49
2023-03-31T19:08:11.973Z,89.55
2023-03-31T19:10:45.448Z,77.90
2023-03-31T19:13:16.331Z,66.28
2023-03-31T19:15:49.469Z,60.12
2023-03-31T19:18:16.848Z,55.99
2023-03-31T19:20:53.406Z,58.15
2023-03-31T19:23:20.503Z,56.53
2023-03-31T19:25:58.388Z,57.16
2023-03-31T19:28:25.912Z,55.19
2023-03-31T19:31:03.340Z,54.36
2023-03-31T19:33:30.185Z,52.04
2023-03-31T19:36:04.405Z,53.63
2023-03-31T19:38:39.412Z,54.69
2023-03-31T19:41:13.456Z,55.73
2023-03-31T19:43:46.467Z,54.74
2023-03-31T19:46:19.349Z,54.39
2023-03-31T19:48:46.781Z,54.41
2023-03-31T19:51:20.363Z,55.36
2023-03-31T19:53:47.319Z,55.04
2023-03-31T19:56:25.517Z,53.30
2023-03-31T19:58:53.902Z,53.19
2023-03-31T20:01:32.540Z,53.68
2023-03-31T20:04:06.518Z,52.56
2023-03-31T20:06:39.832Z,51.46
2023-03-31T20:09:13.490Z,49.93
2023-03-31T20:11:42.677Z,47.83
2023-03-31T20:14:17.417Z,50.13
2023-03-31T20:16:51.418Z,48.31
2023-03-31T20:19:25.418Z,48.20
2023-03-31T20:21:58.015Z,47.86
2023-03-31T20:24:31.464Z,48.63
2023-03-31T20:27:05.450Z,48.35
2023-03-31T20:29:32.706Z,48.44
2023-03-31T20:32:06.397Z,48.73
2023-03-31T20:34:34.329Z,51.77
2023-03-31T20:37:09.428Z,52.46
2023-03-31T20:39:43.479Z,50.08
2023-03-31T20:42:11.167Z,52.15
2023-03-31T20:44:44.444Z,53.71
2023-03-31T20:47:11.595Z,51.68
2023-03-31T20:49:38.644Z,51.24
2023-03-31T20:52:12.466Z,51.26
2023-03-31T20:54:39.379Z,52.80
2023-03-31T20:57:14.591Z,55.62
2023-03-31T20:59:41.881Z,54.99
2023-03-31T21:02:19.499Z,54.82
2023-03-31T21:04:48.128Z,56.59
2023-03-31T21:07:31.498Z,54.88
2023-03-31T21:09:58.746Z,53.34
2023-03-31T21:12:32.484Z,54.13
2023-03-31T21:15:05.452Z,55.47
2023-03-31T21:17:39.433Z,55.21
2023-03-31T21:20:07.088Z,54.28
2023-03-31T21:22:34.041Z,53.57
2023-03-31T21:25:07.459Z,57.61
2023-03-31T21:27:34.308Z,68.72
2023-03-31T21:30:07.460Z,77.73
2023-03-31T21:32:34.386Z,80.76
2023-03-31T21:35:08.530Z,82.65
2023-03-31T21:37:43.447Z,84.12
2023-03-31T21:40:17.497Z,84.86
2023-03-31T21:42:50.439Z,85.79
2023-03-31T21:45:23.657Z,85.58
2023-03-31T21:47:50.531Z,86.12
2023-03-31T21:50:24.419Z,86.94
2023-03-31T21:52:51.601Z,87.21
2023-03-31T21:55:18.626Z,87.69
2023-03-31T21:57:51.494Z,88.08
2023-03-31T22:00:47.457Z,88.17
2023-03-31T22:03:27.064Z,88.20
2023-03-31T22:06:03.109Z,88.78
2023-03-31T22:08:38.463Z,88.51
2023-03-31T22:11:07.429Z,88.89
2023-03-31T22:13:41.711Z,89.39
2023-03-31T22:16:29.461Z,88.74
2023-03-31T22:19:02.409Z,89.52
2023-03-31T22:21:29.338Z,89.29
2023-03-31T22:24:06.480Z,89.85
2023-03-31T22:26:33.608Z,89.52
2023-03-31T22:29:07.474Z,89.45
2023-03-31T22:31:34.469Z,89.90
2023-03-31T22:34:08.561Z,89.44
2023-03-31T22:36:35.743Z,89.46
2023-03-31T22:39:09.454Z,89.54
2023-03-31T22:41:36.896Z,89.59
2023-03-31T22:44:03.868Z,89.92
2023-03-31T22:46:38.515Z,90.30
2023-03-31T22:49:05.913Z,90.44
2023-03-31T22:51:39.524Z,90.08
2023-03-31T22:54:13.481Z,90.10
2023-03-31T22:56:47.471Z,90.36
2023-03-31T22:59:21.475Z,90.23
2023-03-31T23:01:59.448Z,90.07
2023-03-31T23:04:26.861Z,90.30
2023-03-31T23:07:07.578Z,90.79
2023-03-31T23:09:47.527Z,90.56
2023-03-31T23:12:20.616Z,90.54
2023-03-31T23:14:47.582Z,90.83
2023-03-31T23:17:20.500Z,91.10
2023-03-31T23:19:54.537Z,91.22
2023-03-31T23:22:21.922Z,91.28
2023-03-31T23:24:55.560Z,91.04
2023-03-31T23:27:22.467Z,91.39
2023-03-31T23:29:55.436Z,91.38
2023-03-31T23:32:22.322Z,91.88
2023-03-31T23:34:55.653Z,91.42
2023-03-31T23:37:22.542Z,91.69
2023-03-31T23:39:55.473Z,92.02
2023-03-31T23:42:28.534Z,91.97
2023-03-31T23:44:55.372Z,92.04
2023-03-31T23:47:28.502Z,91.83
2023-03-31T23:49:57.128Z,91.89
2023-03-31T23:52:31.566Z,92.18
2023-03-31T23:54:58.361Z,92.02
2023-03-31T23:57:31.653Z,92.06
2023-03-31T23:59:58.551Z,92.33
